Miramar, Florida
Current Conditions -  °F | °C
As of 2:53 PM on Friday 19 Dec 2014 (Local Time) from KHWO Reporting Station
Overcast Overcast  
Wind Chill: 76°   Ceiling: 3600
Heat Index: 76°   Visibility: 10mi
Dew Point: 61°   Wind: 8mph
Humidity: 60%   Direction: 120°ESE
Pressure: 30.04"   Gusts: NA
Location:  25.98°N, 80.22°W
Report Text: KHWO 191953Z 12007KT 10SM BKN036 OVC043 24/16 A3004 RMK AO2 SLP172 T02440161
Loading
Personal Weather Stations






























Interactive Weather Map New forecast layout! Learn more

10-Day Weather Forecast

Advertisements
Track Severe Weather on mobile